METAR Data
IDs: Format: Raw Decoded Include TAF

Data at: 1716 UTC 21 Sep 2018

KDUX 211655Z AUTO 01017G22KT 2SM BR OVC005 16/15 A3025 RMK AO2 T01570150
KDUX 211635Z AUTO 35021G24KT 4SM BR BKN005 OVC009 16/16 A3024 RMK AO2 T01620156
KDUX 211615Z AUTO 35016G22KT 1 1/4SM -RA OVC003 16/16 A3024 RMK AO2 T01610155
KDUX 211555Z AUTO 36016G23KT 1 1/2SM BR OVC005 16/16 A3023 RMK AO2 T01630156
KDUX 211535Z AUTO 36015G22KT 10SM OVC005 17/17 A3021 RMK AO2 T01730165
KDUX 211515Z AUTO 36017G22KT 10SM BKN005 OVC010 17/16 A3020 RMK AO2 T01680160
KDUX 211455Z AUTO 36013KT 10SM -RA BKN007 BKN011 17/16 A3020 RMK AO2 P0001 60025 T01650155
KDUX 211435Z AUTO 01013KT 10SM -RA BKN009 BKN013 17/15 A3019 RMK AO2 P0001 T01650150
KDUX 211415Z AUTO 01009KT 10SM -RA BKN009 OVC015 16/15 A3019 RMK AO2 P0001 T01630150
KDUX 211355Z AUTO 06008KT 10SM -RA SCT008 BKN012 OVC017 16/15 A3017 RMK AO2 P0011 T01640146
KDUX 211335Z AUTO 03018G25KT 10SM RA SCT008 BKN014 BKN026 16/14 A3017 RMK AO2 P0010 T01570138
KDUX 211315Z AUTO 04015G18KT 5SM -RA SCT003 BKN008 OVC036 16/15 A3017 RMK AO2 P0008 T01600150
KDUX 211255Z AUTO 36013G16KT 4SM RA BKN004 OVC008 18/18 A3014 RMK AO2 P0013 T01800175
KDUX 211235Z AUTO 01009KT 5SM RA BKN002 BKN007 BKN012 18/17 A3013 RMK AO2 P0011 T01780173
KDUX 211215Z AUTO 01008KT 2 1/2SM +RA OVC002 18/17 A3012 RMK AO2 P0008 T01780173
KDUX 211155Z AUTO 34006KT 2SM +RA OVC002 18/17 A3010 RMK AO2 P0034 60039 70040 T01770172 10185 20175
KDUX 211135Z AUTO 00000KT 1 3/4SM +RA OVC004 18/18 A3010 RMK AO2 P0021 T01800175
KDUX 211115Z AUTO 36004KT 4SM BR SCT002 SCT008 BKN041 18/18 A3008 RMK AO2 P0001 T01800175
KDUX 211055Z AUTO 33004KT 3SM RA BKN004 BKN015 OVC042 18/18 A3007 RMK AO2 P0005 T01820176
KDUX 211035Z AUTO 00000KT 3SM RA SCT002 BKN043 OVC060 18/18 A3007 RMK AO2 P0001 T01820176
KDUX 211015Z AUTO 00000KT 4SM BR BKN050 BKN075 18/18 A3006 RMK AO2 T01810175
KDUX 210955Z AUTO 05004KT 3SM BR BKN002 BKN050 OVC075 18/18 A3006 RMK AO2 T01800175
KDUX 210935Z AUTO 03003KT 2 1/2SM BR OVC002 18/18 A3005 RMK AO2 T01800175
KDUX 210915Z AUTO 05004KT 5SM BR BKN002 18/17 A3004 RMK AO2 T01800173
KDUX 210855Z AUTO 05004KT 7SM SCT002 18/17 A3003 RMK AO2 T01760168
KDUX 210835Z AUTO 03004KT 10SM CLR 18/17 A3003 RMK AO2 T01780167
KDUX 210815Z AUTO 04004KT 10SM CLR 18/17 A3002 RMK AO2 T01800165
KDUX 210755Z AUTO 06003KT 10SM CLR 18/17 A3002 RMK AO2 T01820165
KDUX 210735Z AUTO 00000KT 10SM CLR 18/17 A3000 RMK AO2 T01770165
KDUX 210715Z AUTO 00000KT 10SM CLR 18/17 A3000 RMK AO2 T01830165
KDUX 210655Z AUTO 00000KT 10SM CLR 18/17 A2998 RMK AO2 T01840165
KDUX 210635Z AUTO 25005KT 10SM CLR 19/17 A2998 RMK AO2 T01850168
KDUX 210615Z AUTO 00000KT 10SM CLR 18/17 A2998 RMK AO2 T01800168
KDUX 210555Z AUTO 00000KT 10SM CLR 18/17 A2998 RMK AO2 T01800167 10221 20180 403150177
KDUX 210535Z AUTO 16003KT 10SM CLR 19/17 A2998 RMK AO2 T01860170
KDUX 210515Z AUTO 00000KT 10SM CLR 19/17 A2998 RMK AO2 T01860170
KDUX 210455Z AUTO 13006KT 10SM CLR 19/17 A2998 RMK AO2 T01880170
KDUX 210435Z AUTO 13004KT 10SM CLR 19/17 A2997 RMK AO2 T01880167
KDUX 210415Z AUTO 10008KT 10SM CLR 18/17 A2997 RMK AO2 T01820168
KDUX 210355Z AUTO 00000KT 10SM SCT036 19/17 A2998 RMK AO2 T01880170
KDUX 210335Z AUTO 00000KT 10SM SCT036 19/17 A2997 RMK AO2 T01900170
KDUX 210315Z AUTO 07003KT 10SM SCT038 19/17 A2996 RMK AO2 T01890170
KDUX 210255Z AUTO 00000KT 10SM CLR 19/17 A2996 RMK AO2 T01940170
KDUX 210235Z AUTO 00000KT 10SM CLR 20/17 A2995 RMK AO2 T01960168
KDUX 210215Z AUTO 10004KT 10SM SCT075 20/17 A2993 RMK AO2 T01970169
KDUX 210155Z AUTO 00000KT 10SM SCT065 20/17 A2995 RMK AO2 T02040167
KDUX 210135Z AUTO 27003KT 10SM SCT065 21/17 A2995 RMK AO2 T02050167
KDUX 210115Z AUTO 34004KT 10SM -DZ SCT008 SCT012 SCT017 21/17 A2993 RMK AO2 T02060169
KDUX 210055Z AUTO 00000KT 10SM -RA SCT008 BKN013 BKN018 21/17 A2994 RMK AO2 T02060169
KDUX 210035Z AUTO 27013KT 10SM -RA SCT008 21/17 A2992 RMK AO2 T02110167
KDUX 210015Z AUTO 28012KT 10SM CLR 22/17 A2991 RMK AO2 T02200165
KDUX 202355Z AUTO 32007KT 10SM SCT075 SCT120 22/17 A2989 RMK AO2 60001 T02210168 10315 20220
KDUX 202335Z AUTO 30010G14KT 10SM SCT075 23/16 A2988 RMK AO2 T02250164
KDUX 202315Z AUTO 00000KT 10SM SCT014 SCT020 BKN075 23/16 A2987 RMK AO2 T02330161
KDUX 202255Z AUTO 24016G39KT 180V250 5SM RA SCT017 SCT025 BKN080 22/12 A2989 RMK AO2 P0001 T02230122
KDUX 202235Z AUTO 19016G19KT 10SM SCT080 29/11 A2986 RMK AO2 T02910110
KDUX 202215Z AUTO 18013G18KT 10SM SCT080 30/11 A2986 RMK AO2 T02970106
KDUX 202155Z AUTO 18016G21KT 10SM SCT080 29/10 A2986 RMK AO2 T02940104
KDUX 202135Z AUTO 20017KT 10SM CLR 31/10 A2985 RMK AO2 T03060103
KDUX 202115Z AUTO 18018KT 10SM SCT080 31/11 A2985 RMK AO2 T03050105
KDUX 202055Z AUTO 18020G25KT 10SM SCT080 31/11 A2986 RMK AO2 T03120108
KDUX 202035Z AUTO 19018G27KT 10SM CLR 31/11 A2986 RMK AO2 T03080111
KDUX 202015Z AUTO 19021G27KT 10SM SCT070 32/11 A2987 RMK AO2 T03150105
KDUX 201955Z AUTO 19017G27KT 10SM SCT070 30/11 A2987 RMK AO2 T03000109
KDUX 201935Z AUTO 18018G25KT 10SM CLR 31/12 A2988 RMK AO2 T03100119
KDUX 201915Z AUTO 17020G26KT 10SM CLR 31/12 A2990 RMK AO2 T03060115
KDUX 201855Z AUTO 18015G24KT 10SM SCT060 31/14 A2991 RMK AO2 T03070135
KDUX 201835Z AUTO 17018G25KT 10SM CLR 30/14 A2991 RMK AO2 T03010136
KDUX 201815Z AUTO 20016G23KT 10SM CLR 30/15 A2992 RMK AO2 T02970145
KDUX 201755Z AUTO 18018G24KT 10SM CLR 29/15 A2993 RMK AO2 T02920145 10292 20182
KDUX 201735Z AUTO 20018G23KT 10SM CLR 29/15 A2994 RMK AO2 T02870146
KDUX 201715Z AUTO 20015G24KT 10SM CLR 28/15 A2995 RMK AO2 T02780145
KDUX 201655Z AUTO 18018G25KT 10SM CLR 27/14 A2995 RMK AO2 T02720144
KDUX 201635Z AUTO 18016G25KT 10SM CLR 27/14 A2995 RMK AO2 T02650142
KDUX 201615Z AUTO 19015G23KT 10SM CLR 26/15 A2995 RMK AO2 T02580145
KDUX 201555Z AUTO 18017G21KT 10SM CLR 25/15 A2996 RMK AO2 T02510146
KDUX 201535Z AUTO 19017G23KT 10SM CLR 24/14 A2997 RMK AO2 T02410144
KDUX 201515Z AUTO 19017KT 10SM CLR 24/15 A2997 RMK AO2 T02350145
KDUX 201455Z AUTO 19022G27KT 10SM CLR 22/14 A2996 RMK AO2 T02220143
KDUX 201435Z AUTO 20018G24KT 10SM CLR 22/15 A2996 RMK AO2 T02160146
KDUX 201415Z AUTO 18021G25KT 10SM CLR 21/15 A2995 RMK AO2 T02070145
KDUX 201355Z AUTO 18017G23KT 10SM CLR 21/15 A2995 RMK AO2 T02050146
KDUX 201335Z AUTO 17016G22KT 10SM CLR 20/14 A2995 RMK AO2 T01970143
KDUX 201315Z AUTO 18015KT 10SM CLR 19/15 A2995 RMK AO2 T01900145
KDUX 201255Z AUTO 18012KT 10SM CLR 18/14 A2994 RMK AO2 T01830142
KDUX 201235Z AUTO 19013G18KT 10SM CLR 19/14 A2993 RMK AO2 T01850141
KDUX 201215Z AUTO 18012KT 10SM CLR 18/14 A2993 RMK AO2 T01830140
KDUX 201155Z AUTO 19011G17KT 10SM CLR 19/14 A2993 RMK AO2 T01850136 10232 20177
KDUX 201135Z AUTO 19011G15KT 10SM CLR 19/14 A2993 RMK AO2 T01850135
KDUX 201115Z AUTO 16006KT 10SM CLR 18/13 A2992 RMK AO2 T01780133
KDUX 201055Z AUTO 18008KT 10SM CLR 19/13 A2992 RMK AO2 T01870133
KDUX 201035Z AUTO 20008KT 10SM CLR 19/13 A2992 RMK AO2 T01870133
KDUX 201015Z AUTO 19009KT 10SM CLR 19/14 A2991 RMK AO2 T01910135
KDUX 200955Z AUTO 19011KT 10SM CLR 19/14 A2991 RMK AO2 T01930135
KDUX 200935Z AUTO 19010KT 10SM CLR 20/14 A2992 RMK AO2 T01960135
KDUX 200915Z AUTO 18010KT 10SM CLR 20/14 A2991 RMK AO2 T01990136
KDUX 200855Z AUTO 18013KT 10SM CLR 21/14 A2991 RMK AO2 T02050138
KDUX 200835Z AUTO 19016G21KT 10SM CLR 21/14 A2991 RMK AO2 T02110142
KDUX 200815Z AUTO 19019G22KT 10SM CLR 22/15 A2991 RMK AO2 T02150146
KDUX 200755Z AUTO 18014KT 10SM CLR 22/15 A2992 RMK AO2 T02170151
KDUX 200735Z AUTO 18012G17KT 10SM CLR 22/16 A2992 RMK AO2 T02180156
KDUX 200715Z AUTO 17013KT 10SM CLR 22/16 A2993 RMK AO2 T02210157
KDUX 200655Z AUTO 17015G19KT 10SM CLR 23/16 A2993 RMK AO2 T02250157
KDUX 200635Z AUTO 16012KT 10SM CLR 23/16 A2993 RMK AO2 T02270157
KDUX 200615Z AUTO 16016G20KT 10SM CLR 23/16 A2993 RMK AO2 T02300157
KDUX 200555Z AUTO 16014G20KT 10SM CLR 23/16 A2993 RMK AO2 T02320158 10299 20232 403270173
KDUX 200535Z AUTO 16017G22KT 10SM CLR 24/16 A2993 RMK AO2 T02350158